createdAt,value
2019-02-24T00:00:00.100Z,-8.8
2019-02-24T00:00:50.432Z,-8.8
2019-02-24T00:01:40.508Z,-8.8
2019-02-24T00:02:30.311Z,-8.8
2019-02-24T00:03:20.335Z,-8.8
2019-02-24T00:04:10.667Z,-8.8
2019-02-24T00:05:00.452Z,-8.8
2019-02-24T00:05:50.510Z,-8.8
2019-02-24T00:06:40.575Z,-8.8
2019-02-24T00:07:30.888Z,-8.8
2019-02-24T00:08:20.960Z,-8.8
2019-02-24T00:09:11.025Z,-8.8
2019-02-24T00:10:00.567Z,-8.9
2019-02-24T00:10:51.182Z,-8.8
2019-02-24T00:11:41.179Z,-8.8
2019-02-24T00:12:31.235Z,-8.8
2019-02-24T00:13:21.292Z,-8.8
2019-02-24T00:14:11.397Z,-8.8
2019-02-24T00:15:01.429Z,-8.8
2019-02-24T00:15:51.462Z,-8.9
2019-02-24T00:16:41.529Z,-8.9
2019-02-24T00:17:31.586Z,-8.9
2019-02-24T00:18:21.629Z,-8.9
2019-02-24T00:19:11.419Z,-8.9
2019-02-24T00:20:01.475Z,-8.9
2019-02-24T00:20:51.815Z,-8.9
2019-02-24T00:21:41.851Z,-8.9
2019-02-24T00:22:31.932Z,-8.9
2019-02-24T00:23:21.977Z,-8.9
2019-02-24T00:24:12.034Z,-8.9
2019-02-24T00:25:01.911Z,-8.9
2019-02-24T00:25:52.151Z,-8.9
2019-02-24T00:26:42.217Z,-8.9
2019-02-24T00:27:32.264Z,-8.9
2019-02-24T00:28:22.329Z,-8.9
2019-02-24T00:29:12.402Z,-8.9
2019-02-24T00:30:02.444Z,-8.9
2019-02-24T00:30:52.214Z,-8.9
2019-02-24T00:31:42.553Z,-8.9
2019-02-24T00:32:34.413Z,-8.9
2019-02-24T00:33:22.712Z,-8.9
2019-02-24T00:34:12.446Z,-8.9
2019-02-24T00:35:02.791Z,-8.9
2019-02-24T00:35:52.878Z,-8.9
2019-02-24T00:36:42.341Z,-8.9
2019-02-24T00:37:32.697Z,-8.9
2019-02-24T00:38:23.010Z,-8.9
2019-02-24T00:39:12.854Z,-8.9
2019-02-24T00:40:03.146Z,-8.9
2019-02-24T00:40:53.185Z,-8.9
2019-02-24T00:41:43.234Z,-8.9
2019-02-24T00:42:33.310Z,-8.9
2019-02-24T00:43:23.076Z,-8.9
2019-02-24T00:44:13.425Z,-8.9
2019-02-24T00:45:03.203Z,-8.9
2019-02-24T00:45:53.245Z,-8.9
2019-02-24T00:46:43.363Z,-8.9
2019-02-24T00:47:33.641Z,-8.9
2019-02-24T00:48:23.700Z,-8.9
2019-02-24T00:49:13.761Z,-8.9
2019-02-24T00:50:03.549Z,-8.9
2019-02-24T00:50:53.860Z,-8.9
2019-02-24T00:51:43.694Z,-8.9
2019-02-24T00:52:33.985Z,-8.9
2019-02-24T00:53:23.768Z,-8.9
2019-02-24T00:54:14.101Z,-8.9
2019-02-24T00:55:04.163Z,-8.9
2019-02-24T00:55:53.987Z,-9
2019-02-24T00:56:43.992Z,-9
2019-02-24T00:57:34.332Z,-9
2019-02-24T00:58:24.382Z,-9
2019-02-24T00:59:14.443Z,-9
2019-02-24T01:00:04.492Z,-9
2019-02-24T01:00:54.564Z,-9
2019-02-24T01:01:44.612Z,-9
2019-02-24T01:02:34.664Z,-9
2019-02-24T01:03:24.723Z,-9
2019-02-24T01:04:14.791Z,-9
2019-02-24T01:05:04.854Z,-9
2019-02-24T01:05:54.614Z,-9
2019-02-24T01:06:44.692Z,-9
2019-02-24T01:07:34.461Z,-9
2019-02-24T01:08:24.802Z,-9
2019-02-24T01:09:14.864Z,-9
2019-02-24T01:10:05.194Z,-9
2019-02-24T01:10:55.294Z,-9
2019-02-24T01:11:45.309Z,-9
2019-02-24T01:12:35.364Z,-9
2019-02-24T01:13:25.411Z,-9
2019-02-24T01:14:15.520Z,-9
2019-02-24T01:15:05.535Z,-9
2019-02-24T01:15:55.581Z,-9.1
2019-02-24T01:16:45.374Z,-9
2019-02-24T01:17:35.422Z,-9.1
2019-02-24T01:18:25.478Z,-9.1
2019-02-24T01:19:15.815Z,-9.1
2019-02-24T01:20:05.599Z,-9.1
2019-02-24T01:20:55.940Z,-9.1
2019-02-24T01:21:45.986Z,-9.1
2019-02-24T01:22:36.040Z,-9.1
2019-02-24T01:23:25.818Z,-9.1
2019-02-24T01:24:15.873Z,-9.1
2019-02-24T01:25:06.211Z,-9.2
2019-02-24T01:25:56.274Z,-9.2
2019-02-24T01:26:46.318Z,-9.2
2019-02-24T01:27:36.394Z,-9.2
2019-02-24T01:28:27.473Z,-9.2
2019-02-24T01:29:16.506Z,-9.3
2019-02-24T01:30:06.561Z,-9.2
2019-02-24T01:30:56.346Z,-9.2
2019-02-24T01:31:46.673Z,-9.3
2019-02-24T01:32:36.721Z,-9.2
2019-02-24T01:33:26.791Z,-9.2
2019-02-24T01:34:16.599Z,-9.3
2019-02-24T01:35:06.946Z,-9.2
2019-02-24T01:35:56.680Z,-9.2
2019-02-24T01:36:47.011Z,-9.2
2019-02-24T01:37:37.083Z,-9.3
2019-02-24T01:38:27.137Z,-9.2
2019-02-24T01:39:17.180Z,-9.3
2019-02-24T01:40:07.237Z,-9.3
2019-02-24T01:40:57.292Z,-9.3
2019-02-24T01:41:47.369Z,-9.3
2019-02-24T01:42:37.422Z,-9.3
2019-02-24T01:43:27.182Z,-9.3
2019-02-24T01:44:17.305Z,-9.4
2019-02-24T01:45:07.588Z,-9.4
2019-02-24T01:45:57.367Z,-9.4
2019-02-24T01:46:47.707Z,-9.4
2019-02-24T01:47:37.767Z,-9.4
2019-02-24T01:48:27.811Z,-9.4
2019-02-24T01:49:17.870Z,-9.4
2019-02-24T01:50:07.663Z,-9.4
2019-02-24T01:50:57.705Z,-9.4
2019-02-24T01:51:48.047Z,-9.4
2019-02-24T01:52:38.103Z,-9.4
2019-02-24T01:53:28.154Z,-9.4
2019-02-24T01:54:18.223Z,-9.4
2019-02-24T01:55:08.272Z,-9.4
2019-02-24T01:55:58.059Z,-9.4
2019-02-24T01:56:48.115Z,-9.4
2019-02-24T01:57:38.444Z,-9.4
2019-02-24T01:58:37.005Z,-9.4
2019-02-24T01:59:18.559Z,-9.4
2019-02-24T02:00:08.621Z,-9.4
2019-02-24T02:00:58.391Z,-9.4
2019-02-24T02:01:48.731Z,-9.4
2019-02-24T02:02:38.504Z,-9.4
2019-02-24T02:03:28.302Z,-9.4
2019-02-24T02:04:18.642Z,-9.4
2019-02-24T02:05:08.685Z,-9.4
2019-02-24T02:05:58.746Z,-9.4
2019-02-24T02:06:48.792Z,-9.4
2019-02-24T02:07:39.130Z,-9.4
2019-02-24T02:08:29.211Z,-9.4
2019-02-24T02:09:19.019Z,-9.4
2019-02-24T02:10:09.306Z,-9.4
2019-02-24T02:10:59.351Z,-9.4
2019-02-24T02:11:49.126Z,-9.4
2019-02-24T02:12:39.476Z,-9.4
2019-02-24T02:13:29.526Z,-9.4
2019-02-24T02:14:19.610Z,-9.4
2019-02-24T02:15:09.642Z,-9.4
2019-02-24T02:15:59.707Z,-9.4
2019-02-24T02:16:49.758Z,-9.4
2019-02-24T02:17:39.811Z,-9.4
2019-02-24T02:18:29.624Z,-9.4
2019-02-24T02:19:19.918Z,-9.4
2019-02-24T02:20:09.987Z,-9.4
2019-02-24T02:20:59.761Z,-9.5
2019-02-24T02:21:50.153Z,-9.5
2019-02-24T02:22:40.156Z,-9.5
2019-02-24T02:23:29.935Z,-9.5
2019-02-24T02:24:20.278Z,-9.5
2019-02-24T02:30:10.450Z,-9.5
2019-02-24T02:31:00.730Z,-9.5
2019-02-24T02:31:50.814Z,-9.5
2019-02-24T02:32:40.588Z,-9.5
2019-02-24T02:33:30.920Z,-9.5
2019-02-24T02:34:20.682Z,-9.5
2019-02-24T02:35:10.727Z,-9.5
2019-02-24T02:36:00.522Z,-9.5
2019-02-24T02:36:51.143Z,-9.5
2019-02-24T02:37:41.183Z,-9.5
2019-02-24T02:38:31.235Z,-9.5
2019-02-24T02:39:21.302Z,-9.5
2019-02-24T02:40:11.354Z,-9.5
2019-02-24T02:41:01.407Z,-9.5
2019-02-24T02:41:51.484Z,-9.5
2019-02-24T02:42:41.522Z,-9.5
2019-02-24T02:43:31.579Z,-9.5
2019-02-24T02:44:21.653Z,-9.5
2019-02-24T02:45:11.711Z,-9.5
2019-02-24T02:46:01.765Z,-9.5
2019-02-24T02:46:51.877Z,-9.5
2019-02-24T02:47:41.881Z,-9.4
2019-02-24T02:48:31.922Z,-9.4
2019-02-24T02:49:21.707Z,-9.4
2019-02-24T02:50:12.099Z,-9.4
2019-02-24T02:51:02.093Z,-9.4
2019-02-24T02:51:52.146Z,-9.4
2019-02-24T02:52:42.204Z,-9.4
2019-02-24T02:53:32.321Z,-9.4
2019-02-24T02:54:22.047Z,-9.4
2019-02-24T02:55:12.114Z,-9.4
2019-02-24T02:56:02.506Z,-9.4
2019-02-24T02:56:52.491Z,-9.4
2019-02-24T02:57:42.551Z,-9.5
2019-02-24T02:58:32.337Z,-9.4
2019-02-24T02:59:22.681Z,-9.4
2019-02-24T03:00:12.468Z,-9.5
2019-02-24T03:01:02.786Z,-9.4
2019-02-24T03:01:52.847Z,-9.5
2019-02-24T03:02:42.613Z,-9.5
2019-02-24T03:03:32.683Z,-9.5
2019-02-24T03:04:22.731Z,-9.5
2019-02-24T03:08:45.550Z,-9.5
2019-02-24T03:09:35.861Z,-9.5
2019-02-24T03:10:25.903Z,-9.5
2019-02-24T03:11:15.969Z,-9.5
2019-02-24T03:12:06.028Z,-9.5
2019-02-24T03:12:56.076Z,-9.5
2019-02-24T03:13:45.868Z,-9.5
2019-02-24T03:14:36.228Z,-9.5
2019-02-24T03:15:25.686Z,-9.4
2019-02-24T03:16:16.306Z,-9.4
2019-02-24T03:17:06.094Z,-9.5
2019-02-24T03:17:56.423Z,-9.5
2019-02-24T03:18:46.262Z,-9.4
2019-02-24T03:19:36.531Z,-9.5
2019-02-24T03:20:26.602Z,-9.5
2019-02-24T03:21:16.401Z,-9.5
2019-02-24T03:22:06.427Z,-9.5
2019-02-24T03:22:56.772Z,-9.5
2019-02-24T03:23:46.543Z,-9.5
2019-02-24T03:25:26.955Z,-9.5
2019-02-24T03:32:57.245Z,-9.6
2019-02-24T03:33:47.575Z,-9.6
2019-02-24T03:34:37.559Z,-9.6
2019-02-24T03:35:27.342Z,-9.6
2019-02-24T03:36:17.407Z,-9.6
2019-02-24T03:37:07.734Z,-9.6
2019-02-24T03:37:57.778Z,-9.6
2019-02-24T03:38:47.840Z,-9.6
2019-02-24T03:39:37.891Z,-9.6
2019-02-24T03:40:27.952Z,-9.7
2019-02-24T03:41:17.739Z,-9.6
2019-02-24T03:42:08.074Z,-9.6
2019-02-24T03:42:57.838Z,-9.6
2019-02-24T03:43:47.994Z,-9.6
2019-02-24T03:44:38.237Z,-9.6
2019-02-24T03:45:28.019Z,-9.7
2019-02-24T03:46:18.356Z,-9.7
2019-02-24T03:47:08.409Z,-9.7
2019-02-24T03:47:58.193Z,-9.7
2019-02-24T03:48:48.528Z,-9.7
2019-02-24T03:49:38.578Z,-9.7
2019-02-24T03:50:28.692Z,-9.7
2019-02-24T03:51:18.429Z,-9.7
2019-02-24T03:52:08.743Z,-9.7
2019-02-24T03:52:58.809Z,-9.7
2019-02-24T03:53:48.603Z,-9.7
2019-02-24T03:54:38.967Z,-9.7
2019-02-24T03:55:28.968Z,-9.7
2019-02-24T03:56:19.047Z,-9.7
2019-02-24T03:57:08.805Z,-9.7
2019-02-24T03:57:58.886Z,-9.7
2019-02-24T03:58:49.207Z,-9.8
2019-02-24T03:59:38.992Z,-9.7
2019-02-24T04:00:29.331Z,-9.8
2019-02-24T04:01:19.381Z,-9.8
2019-02-24T04:02:09.426Z,-9.8
2019-02-24T04:02:59.508Z,-9.8
2019-02-24T04:03:49.300Z,-9.8
2019-02-24T04:04:39.599Z,-9.8
2019-02-24T04:05:29.401Z,-9.8
2019-02-24T04:06:19.717Z,-9.8
2019-02-24T04:07:09.767Z,-9.8
2019-02-24T04:07:59.306Z,-9.8
2019-02-24T04:08:49.916Z,-9.8
2019-02-24T04:09:39.940Z,-9.8
2019-02-24T04:10:29.753Z,-9.8
2019-02-24T04:11:20.054Z,-9.8
2019-02-24T04:12:09.833Z,-9.8
2019-02-24T04:13:00.160Z,-9.8
2019-02-24T04:13:49.950Z,-9.8
2019-02-24T04:14:40.284Z,-9.8
2019-02-24T04:15:30.335Z,-9.8
2019-02-24T04:16:20.390Z,-9.8
2019-02-24T04:17:10.178Z,-9.8
2019-02-24T04:18:00.245Z,-9.8
2019-02-24T04:18:50.554Z,-9.8
2019-02-24T04:19:40.349Z,-9.8
2019-02-24T04:20:30.674Z,-9.8
2019-02-24T04:21:20.738Z,-9.8
2019-02-24T04:22:10.817Z,-9.8
2019-02-24T04:23:00.304Z,-9.8
2019-02-24T04:23:50.635Z,-9.8
2019-02-24T04:24:40.965Z,-9.8
2019-02-24T04:25:30.747Z,-9.8
2019-02-24T04:26:20.825Z,-9.8
2019-02-24T04:27:13.253Z,-9.8
2019-02-24T04:28:00.912Z,-9.8
2019-02-24T04:28:51.239Z,-9.8
2019-02-24T04:29:41.303Z,-9.8
2019-02-24T04:30:31.122Z,-9.8
2019-02-24T04:31:21.499Z,-9.8
2019-02-24T04:32:11.482Z,-9.8
2019-02-24T04:33:01.539Z,-9.8
2019-02-24T04:33:51.586Z,-9.8
2019-02-24T04:34:41.353Z,-9.8
2019-02-24T04:35:31.466Z,-9.9
2019-02-24T04:36:21.761Z,-9.9
2019-02-24T04:37:11.534Z,-9.9
2019-02-24T04:38:01.586Z,-9.9
2019-02-24T04:38:51.667Z,-9.9
2019-02-24T04:39:41.702Z,-9.9
2019-02-24T04:40:32.049Z,-9.9
2019-02-24T04:41:22.206Z,-9.9
2019-02-24T04:42:11.881Z,-9.9
2019-02-24T04:43:02.454Z,-9.9
2019-02-24T04:43:52.313Z,-9.9
2019-02-24T04:44:42.353Z,-9.9
2019-02-24T04:45:32.093Z,-10
2019-02-24T04:46:22.426Z,-10
2019-02-24T04:47:12.526Z,-10
2019-02-24T04:48:02.299Z,-10
2019-02-24T04:48:52.636Z,-10
2019-02-24T04:49:42.676Z,-10
2019-02-24T04:50:32.441Z,-10.1
2019-02-24T04:51:22.775Z,-10.1
2019-02-24T04:52:12.825Z,-10.1
2019-02-24T04:53:02.943Z,-10.1
2019-02-24T04:53:52.935Z,-10.1
2019-02-24T04:54:42.538Z,-10.1
2019-02-24T04:55:33.072Z,-10.1
2019-02-24T04:56:22.918Z,-10.1
2019-02-24T04:57:13.181Z,-10.2
2019-02-24T04:58:02.690Z,-10.2
2019-02-24T04:58:53.267Z,-10.2
2019-02-24T04:59:43.065Z,-10.2
2019-02-24T05:00:33.403Z,-10.3
2019-02-24T05:01:23.455Z,-10.3
2019-02-24T05:02:13.510Z,-10.3
2019-02-24T05:03:03.564Z,-10.3
2019-02-24T05:03:53.348Z,-10.3
2019-02-24T05:04:43.409Z,-10.3
2019-02-24T05:05:33.730Z,-10.3
2019-02-24T05:06:23.816Z,-10.3
2019-02-24T05:07:13.850Z,-10.3
2019-02-24T05:08:03.930Z,-10.3
2019-02-24T05:08:53.695Z,-10.3
2019-02-24T05:09:44.018Z,-10.3
2019-02-24T05:10:33.820Z,-10.3
2019-02-24T05:11:23.883Z,-10.3
2019-02-24T05:12:14.194Z,-10.4
2019-02-24T05:13:04.049Z,-10.4
2019-02-24T05:13:54.026Z,-10.4
2019-02-24T05:14:44.369Z,-10.4
2019-02-24T05:15:34.437Z,-10.4
2019-02-24T05:16:24.200Z,-10.4
2019-02-24T05:17:14.556Z,-10.4
2019-02-24T05:18:04.609Z,-10.4
2019-02-24T05:18:54.646Z,-10.4
2019-02-24T05:19:44.697Z,-10.4
2019-02-24T05:20:34.758Z,-10.4
2019-02-24T05:21:24.847Z,-10.4
2019-02-24T05:22:14.875Z,-10.4
2019-02-24T05:23:04.945Z,-10.4
2019-02-24T05:23:54.972Z,-10.4
2019-02-24T05:24:45.034Z,-10.3
2019-02-24T05:25:34.823Z,-10.4
2019-02-24T05:26:25.165Z,-10.3
2019-02-24T05:27:14.923Z,-10.3
2019-02-24T05:28:05.267Z,-10.3
2019-02-24T05:28:55.335Z,-10.3
2019-02-24T05:29:48.265Z,-10.3
2019-02-24T05:30:35.460Z,-10.3
2019-02-24T05:31:25.490Z,-10.3
2019-02-24T05:32:15.010Z,-10.3
2019-02-24T05:33:05.619Z,-10.3
2019-02-24T05:33:55.407Z,-10.3
2019-02-24T05:34:45.760Z,-10.3
2019-02-24T05:35:35.794Z,-10.2
2019-02-24T05:36:25.844Z,-10.2
2019-02-24T05:37:15.625Z,-10.2
2019-02-24T05:38:05.706Z,-10.1
2019-02-24T05:38:55.741Z,-10.1
2019-02-24T05:39:46.064Z,-10.1
2019-02-24T05:40:36.119Z,-10.1
2019-02-24T05:41:25.894Z,-10.1
2019-02-24T05:42:16.237Z,-10.1
2019-02-24T05:43:06.284Z,-10.1
2019-02-24T05:43:56.066Z,-10
2019-02-24T05:44:46.389Z,-9.9
2019-02-24T05:45:36.502Z,-9.9
2019-02-24T05:46:26.234Z,-9.9
2019-02-24T05:47:16.589Z,-9.9
2019-02-24T05:48:06.641Z,-9.9
2019-02-24T05:48:56.671Z,-9.8
2019-02-24T05:49:46.779Z,-9.8
2019-02-24T05:50:36.793Z,-9.8
2019-02-24T05:51:26.599Z,-9.7
2019-02-24T05:52:16.904Z,-9.6
2019-02-24T05:54:47.105Z,-9.5
2019-02-24T05:55:36.845Z,-9.4
2019-02-24T05:56:27.219Z,-9.4
2019-02-24T05:57:17.239Z,-9.3
2019-02-24T05:58:07.321Z,-9.2
2019-02-24T05:58:57.359Z,-9.1
2019-02-24T05:59:57.181Z,-9
2019-02-24T06:00:37.478Z,-8.9
2019-02-24T06:01:27.536Z,-8.8
2019-02-24T06:02:17.313Z,-8.6
2019-02-24T06:03:07.636Z,-8.4
2019-02-24T06:03:57.712Z,-8.2
2019-02-24T06:05:55.303Z,-7.8
2019-02-24T06:06:45.649Z,-7.4
2019-02-24T06:07:35.724Z,-7.1
2019-02-24T06:08:25.742Z,-6.8
2019-02-24T06:09:15.533Z,-6.6
2019-02-24T06:10:05.862Z,-6.3
2019-02-24T06:10:55.925Z,-5.9
2019-02-24T06:11:45.715Z,-5.6
2019-02-24T06:12:36.038Z,-5.3
2019-02-24T06:13:25.812Z,-4.9
2019-02-24T06:14:15.873Z,-4.6
2019-02-24T06:15:05.975Z,-4.2
2019-02-24T06:15:56.023Z,-3.9
2019-02-24T06:16:46.040Z,-3.5
2019-02-24T06:17:36.105Z,-3.2
2019-02-24T06:18:26.447Z,-2.8
2019-02-24T06:19:16.250Z,-2.4
2019-02-24T06:20:06.592Z,-2.1
2019-02-24T06:20:56.351Z,-1.7
2019-02-24T06:21:46.379Z,-1.4
2019-02-24T06:23:26.769Z,-0.6
2019-02-24T06:24:16.825Z,-0.2
2019-02-24T06:25:07.077Z,0.2
2019-02-24T06:25:57.064Z,0.6
2019-02-24T06:26:46.999Z,0.9
2019-02-24T06:27:37.052Z,1.4
2019-02-24T06:28:27.137Z,1.8
2019-02-24T06:29:16.902Z,2.3
2019-02-24T06:30:07.857Z,2.6
2019-02-24T06:30:57.278Z,3.1
2019-02-24T06:31:46.794Z,3.5
2019-02-24T06:32:37.401Z,3.9
2019-02-24T06:33:27.450Z,4.4
2019-02-24T06:34:17.226Z,4.8
2019-02-24T06:35:07.572Z,5.3
2019-02-24T06:35:57.394Z,5.8
2019-02-24T06:36:47.122Z,6.3
2019-02-24T06:37:37.741Z,6.8
2019-02-24T06:38:27.801Z,7.4
2019-02-24T06:39:17.914Z,8
2019-02-24T06:40:07.641Z,8.6
2019-02-24T06:40:59.814Z,9.1
2019-02-24T06:41:48.018Z,9.8
2019-02-24T06:42:38.070Z,10.3
2019-02-24T06:43:27.856Z,10.9
2019-02-24T06:44:18.203Z,11.4
2019-02-24T06:45:08.254Z,12
2019-02-24T06:45:58.021Z,12.6
2019-02-24T06:46:48.368Z,13.1
2019-02-24T06:47:38.431Z,13.8
2019-02-24T06:48:28.492Z,14.3
2019-02-24T06:49:18.551Z,14.9
2019-02-24T06:50:08.331Z,15.5
2019-02-24T06:50:58.376Z,16.1
2019-02-24T06:51:48.704Z,16.7
2019-02-24T06:52:38.504Z,17.3
2019-02-24T06:53:28.820Z,17.8
2019-02-24T06:54:18.601Z,18.4
2019-02-24T06:55:08.923Z,18.9
2019-02-24T06:55:58.453Z,19.4
2019-02-24T06:56:48.482Z,20
2019-02-24T06:57:38.857Z,20.6
2019-02-24T06:58:28.870Z,21.1
2019-02-24T06:59:18.687Z,21.6
2019-02-24T07:00:16.059Z,22.1
2019-02-24T07:00:59.048Z,22.6
2019-02-24T07:01:49.372Z,23.1
2019-02-24T07:02:39.437Z,23.5
2019-02-24T07:03:29.510Z,24
2019-02-24T07:05:55.550Z,25.3
2019-02-24T07:06:45.612Z,25.9
2019-02-24T07:07:35.157Z,26.4
2019-02-24T07:08:25.709Z,26.9
2019-02-24T07:09:15.768Z,27.4
2019-02-24T07:10:05.848Z,27.9
2019-02-24T07:10:55.882Z,28.3
2019-02-24T07:11:45.935Z,28.8
2019-02-24T07:12:36.012Z,29.1
2019-02-24T07:13:26.062Z,29.6
2019-02-24T07:14:15.547Z,30
2019-02-24T07:15:06.179Z,30.4
2019-02-24T07:15:56.216Z,30.8
2019-02-24T07:16:46.283Z,31.2
2019-02-24T07:17:36.338Z,31.4
2019-02-24T07:18:26.389Z,31.7
2019-02-24T07:19:15.896Z,31.9
2019-02-24T07:20:06.507Z,32.2
2019-02-24T07:20:56.571Z,32.4
2019-02-24T07:21:46.631Z,32.8
2019-02-24T07:22:36.679Z,33
2019-02-24T07:23:26.738Z,33.3
2019-02-24T07:24:16.511Z,33.6
2019-02-24T07:25:06.572Z,33.9
2019-02-24T07:25:56.643Z,34.2
2019-02-24T07:26:46.676Z,34.6
2019-02-24T07:27:37.006Z,34.9
2019-02-24T07:28:26.786Z,35.3
2019-02-24T07:29:17.139Z,35.6
2019-02-24T07:30:07.175Z,35.9
2019-02-24T07:30:57.246Z,36.1
2019-02-24T07:31:47.014Z,36.4
2019-02-24T07:32:37.080Z,36.6
2019-02-24T07:33:27.414Z,36.9
2019-02-24T07:34:17.472Z,37.3
2019-02-24T07:35:07.528Z,37.5
2019-02-24T07:35:57.313Z,37.9
2019-02-24T07:36:47.417Z,38.3
2019-02-24T07:37:37.426Z,38.6
2019-02-24T07:38:27.755Z,38.9
2019-02-24T07:39:17.798Z,39.3
2019-02-24T07:40:07.866Z,39.6
2019-02-24T07:40:57.645Z,40
2019-02-24T07:41:47.968Z,40.4
2019-02-24T07:42:38.029Z,40.8
2019-02-24T07:43:27.533Z,40.9
2019-02-24T07:44:18.143Z,41.2
2019-02-24T07:45:08.193Z,41.3
2019-02-24T07:45:57.485Z,41.6
2019-02-24T07:46:47.816Z,41.8
2019-02-24T07:47:38.355Z,42.1
2019-02-24T07:48:28.424Z,42.4
2019-02-24T07:49:18.473Z,42.7
2019-02-24T07:50:08.538Z,42.9
2019-02-24T07:50:58.367Z,43.1
2019-02-24T07:51:48.650Z,43.3
2019-02-24T07:52:38.699Z,43.6
2019-02-24T07:53:28.475Z,43.9
2019-02-24T07:54:18.822Z,44.1
2019-02-24T07:55:08.877Z,44.4
2019-02-24T07:55:58.935Z,44.6
2019-02-24T07:56:48.982Z,44.8
2019-02-24T07:57:39.089Z,45.1
2019-02-24T07:58:29.095Z,45.5
2019-02-24T07:59:19.165Z,45.9
2019-02-24T08:00:09.213Z,46.2
2019-02-24T08:00:58.987Z,46.6
2019-02-24T08:01:49.321Z,46.9
2019-02-24T08:02:39.459Z,47.3
2019-02-24T08:03:29.432Z,47.5
2019-02-24T08:04:19.497Z,47.8
2019-02-24T08:05:09.555Z,48.2
2019-02-24T08:05:59.602Z,48.8
2019-02-24T08:06:49.687Z,49
2019-02-24T08:07:39.706Z,49.4
2019-02-24T08:08:29.496Z,49.6
2019-02-24T08:09:19.817Z,49.9
2019-02-24T08:10:09.883Z,50.1
2019-02-24T08:10:59.941Z,50.4
2019-02-24T08:11:49.996Z,50.6
2019-02-24T08:12:40.054Z,50.7
2019-02-24T08:13:29.836Z,50.8
2019-02-24T08:14:19.888Z,50.9
2019-02-24T08:15:10.251Z,51.3
2019-02-24T08:16:00.281Z,51.5
2019-02-24T08:16:50.062Z,51.9
2019-02-24T08:17:40.159Z,52.2
2019-02-24T08:18:30.438Z,52.5
2019-02-24T08:19:20.501Z,52.9
2019-02-24T08:20:10.557Z,53.4
2019-02-24T08:21:00.965Z,53.8
2019-02-24T08:21:50.693Z,54.2
2019-02-24T08:22:40.720Z,54.5
2019-02-24T08:23:30.536Z,54.9
2019-02-24T08:24:20.833Z,55.3
2019-02-24T08:25:10.618Z,55.7
2019-02-24T08:26:00.951Z,56.1
2019-02-24T08:26:51.021Z,55.9
2019-02-24T08:27:41.058Z,55.7
2019-02-24T08:28:31.122Z,55.7
2019-02-24T08:29:20.908Z,56.3
2019-02-24T08:30:11.233Z,57
2019-02-24T08:31:01.295Z,57.3
2019-02-24T08:31:51.341Z,57.3
2019-02-24T08:32:41.414Z,56.7
2019-02-24T08:33:31.452Z,57.5
2019-02-24T08:34:21.243Z,57.3
2019-02-24T08:35:11.291Z,54.6
2019-02-24T08:36:01.360Z,51.6
2019-02-24T08:36:51.196Z,49.4
2019-02-24T08:37:41.467Z,47.7
2019-02-24T08:38:31.795Z,46.6
2019-02-24T08:39:21.860Z,46.1
2019-02-24T08:40:11.917Z,46.1
2019-02-24T08:41:01.975Z,46.3
2019-02-24T08:41:51.745Z,46.7
2019-02-24T08:42:42.080Z,47.2
2019-02-24T08:43:32.137Z,47.8
2019-02-24T08:44:24.219Z,48.1
2019-02-24T08:45:12.258Z,48.1
2019-02-24T08:46:02.297Z,48.2
2019-02-24T08:46:52.363Z,48.3
2019-02-24T08:47:42.459Z,48.4
2019-02-24T08:48:31.980Z,48.7
2019-02-24T08:49:22.539Z,48.9
2019-02-24T08:50:12.584Z,49.2
2019-02-24T08:51:02.692Z,49.5
2019-02-24T08:51:52.722Z,49.8
2019-02-24T08:52:42.771Z,50.1
2019-02-24T08:53:32.536Z,50.4
2019-02-24T08:54:22.870Z,50.7
2019-02-24T08:55:12.936Z,51
2019-02-24T08:56:02.993Z,51.4
2019-02-24T08:56:53.051Z,51.9
2019-02-24T08:57:43.089Z,52.4
2019-02-24T08:58:33.164Z,52.9
2019-02-24T08:59:23.214Z,53.5
2019-02-24T09:00:13.009Z,54.1
2019-02-24T09:01:03.349Z,54.6
2019-02-24T09:01:53.391Z,55.2
2019-02-24T09:02:43.436Z,55.8
2019-02-24T09:03:33.509Z,56.5
2019-02-24T09:04:23.553Z,57.1
2019-02-24T09:06:03.672Z,59.1
2019-02-24T09:06:53.496Z,59.2
2019-02-24T09:07:43.794Z,57
2019-02-24T09:08:33.556Z,54.3
2019-02-24T09:09:23.608Z,51.4
2019-02-24T09:10:13.949Z,49.2
2019-02-24T09:11:04.011Z,47.6
2019-02-24T09:11:54.066Z,46.6
2019-02-24T09:12:44.128Z,46
2019-02-24T09:13:34.183Z,45.6
2019-02-24T09:14:24.246Z,45.2
2019-02-24T09:15:14.305Z,44.7
2019-02-24T09:16:04.417Z,44.3
2019-02-24T09:16:54.135Z,44.1
2019-02-24T09:17:44.521Z,44.2
2019-02-24T09:18:34.526Z,44.2
2019-02-24T09:19:24.348Z,44.3
2019-02-24T09:20:14.651Z,44.3
2019-02-24T09:21:04.723Z,44.3
2019-02-24T09:21:54.735Z,44.3
2019-02-24T09:22:44.541Z,44.4
2019-02-24T09:23:34.617Z,44.7
2019-02-24T09:24:24.357Z,45.2
2019-02-24T09:25:14.973Z,45.8
2019-02-24T09:26:05.036Z,46.6
2019-02-24T09:26:54.815Z,47.4
2019-02-24T09:27:45.138Z,48.1
2019-02-24T09:28:34.642Z,48.7
2019-02-24T09:29:25.030Z,49.2
2019-02-24T09:30:15.323Z,49.6
2019-02-24T09:31:05.380Z,49.9
2019-02-24T09:31:55.140Z,50
2019-02-24T09:32:45.203Z,50.4
2019-02-24T09:33:35.524Z,50.9
2019-02-24T09:34:25.640Z,51.4
2019-02-24T09:35:15.372Z,52.1
2019-02-24T09:36:05.702Z,52.8
2019-02-24T09:36:55.487Z,53.6
2019-02-24T09:37:45.818Z,54.3
2019-02-24T09:38:35.649Z,54.9
2019-02-24T09:39:25.927Z,55.6
2019-02-24T09:40:15.989Z,56.3
2019-02-24T09:41:06.045Z,56.8
2019-02-24T09:41:56.139Z,57.2
2019-02-24T09:42:46.157Z,57.6
2019-02-24T09:43:36.204Z,58.4
2019-02-24T09:44:26.274Z,57.7
2019-02-24T09:45:16.336Z,56.3
2019-02-24T09:46:06.389Z,54.1
2019-02-24T09:46:56.431Z,51.5
2019-02-24T09:47:49.066Z,49.5
2019-02-24T09:48:36.566Z,48.2
2019-02-24T09:49:26.606Z,47.6
2019-02-24T09:50:16.665Z,47.6
2019-02-24T09:51:06.729Z,47.9
2019-02-24T09:51:56.501Z,48.4
2019-02-24T09:52:46.564Z,49.1
2019-02-24T09:53:36.894Z,49.9
2019-02-24T09:54:26.944Z,50.7
2019-02-24T09:55:17.004Z,51.4
2019-02-24T09:56:07.053Z,52.2
2019-02-24T09:56:57.118Z,52.9
2019-02-24T09:57:47.182Z,53.5
2019-02-24T09:58:37.226Z,54.2
2019-02-24T09:59:27.007Z,54.8
2019-02-24T10:00:17.346Z,55.2
2019-02-24T10:01:12.889Z,55.8
2019-02-24T10:01:57.456Z,56.5
2019-02-24T10:02:47.503Z,57.1
2019-02-24T10:03:37.014Z,58.2
2019-02-24T10:04:27.634Z,59.6
2019-02-24T10:06:55.416Z,56.8
2019-02-24T10:07:45.451Z,54.1
2019-02-24T10:08:35.511Z,52.2
2019-02-24T10:09:25.559Z,50.8
2019-02-24T10:10:15.623Z,49.9
2019-02-24T10:11:05.399Z,49.8
2019-02-24T10:11:55.753Z,49.9
2019-02-24T10:12:45.898Z,50.3
2019-02-24T10:13:35.565Z,51
2019-02-24T10:14:25.674Z,51.6
2019-02-24T10:15:15.970Z,52.2
2019-02-24T10:16:06.010Z,52.9
2019-02-24T10:16:55.792Z,53.6
2019-02-24T10:17:45.851Z,54.3
2019-02-24T10:18:35.900Z,55
2019-02-24T10:19:26.233Z,55.8
2019-02-24T10:20:16.299Z,56.7
2019-02-24T10:21:56.402Z,59.2
2019-02-24T10:22:46.462Z,59.3
2019-02-24T10:23:36.521Z,58.6
2019-02-24T10:24:26.616Z,57.7
2019-02-24T10:25:16.634Z,55.8
2019-02-24T10:26:06.421Z,53.8
2019-02-24T10:26:56.736Z,52.2
2019-02-24T10:27:46.802Z,50.9
2019-02-24T10:28:36.879Z,50.4
2019-02-24T10:29:26.654Z,50.5
2019-02-24T10:30:16.974Z,50.9
2019-02-24T10:31:07.033Z,51.4
2019-02-24T10:32:46.866Z,53.1
2019-02-24T10:33:37.199Z,54.1
2019-02-24T10:34:27.256Z,54.9
2019-02-24T10:35:17.042Z,55.6
2019-02-24T10:36:07.369Z,56.1
2019-02-24T10:36:57.421Z,56.5
2019-02-24T10:37:47.497Z,56.8
2019-02-24T10:38:37.263Z,57.3
2019-02-24T10:39:31.832Z,58.1
2019-02-24T10:40:17.667Z,59.7
2019-02-24T10:41:07.721Z,59.7
2019-02-24T10:41:57.781Z,59.2
2019-02-24T10:42:47.539Z,58.2
2019-02-24T10:43:37.891Z,56.3
2019-02-24T10:44:27.995Z,54.2
2019-02-24T10:45:18.011Z,52.8
2019-02-24T10:46:07.778Z,51.8
2019-02-24T10:46:58.103Z,51.6
2019-02-24T10:48:38.210Z,52.4
2019-02-24T10:49:28.282Z,53
2019-02-24T10:50:18.074Z,53.8
2019-02-24T10:51:08.108Z,54.7
2019-02-24T10:51:58.448Z,55.8
2019-02-24T10:52:48.571Z,57
2019-02-24T10:53:38.565Z,59
2019-02-24T10:54:28.611Z,59.9
2019-02-24T10:55:18.735Z,60.2
2019-02-24T10:56:08.726Z,60
2019-02-24T10:56:58.228Z,58.9
2019-02-24T10:57:48.855Z,56.9
2019-02-24T10:58:38.905Z,55.6
2019-02-24T10:59:28.953Z,54.7
2019-02-24T11:00:18.791Z,54.1
2019-02-24T11:01:08.803Z,53.3
2019-02-24T11:01:59.150Z,52.9
2019-02-24T11:02:49.197Z,53.3
2019-02-24T11:03:39.242Z,53.9
2019-02-24T11:04:29.298Z,54.7
2019-02-24T11:05:19.360Z,55.4
2019-02-24T11:06:09.144Z,56
2019-02-24T11:06:59.462Z,57.4
2019-02-24T11:07:49.548Z,58.9
2019-02-24T11:08:39.318Z,59.1
2019-02-24T11:09:29.627Z,58.7
2019-02-24T11:10:19.692Z,57.6
2019-02-24T11:11:09.763Z,55.8
2019-02-24T11:11:59.810Z,54.2
2019-02-24T11:12:49.870Z,53.1
2019-02-24T11:13:39.917Z,52.3
2019-02-24T11:14:29.702Z,51.8
2019-02-24T11:16:59.869Z,53.1
2019-02-24T11:17:50.214Z,53.9
2019-02-24T11:18:40.265Z,54.4
2019-02-24T11:19:30.319Z,55.3
2019-02-24T11:20:20.159Z,56.1
2019-02-24T11:21:10.476Z,57.4
2019-02-24T11:23:04.929Z,58.8
2019-02-24T11:23:40.606Z,58.4
2019-02-24T11:24:30.665Z,57.6
2019-02-24T11:25:20.716Z,55.9
2019-02-24T11:26:10.767Z,53.9
2019-02-24T11:27:00.831Z,52.3
2019-02-24T11:27:50.674Z,50.9
2019-02-24T11:28:40.661Z,49.8
2019-02-24T11:29:31.014Z,49
2019-02-24T11:30:20.801Z,48.1
2019-02-24T11:31:10.873Z,46.9
2019-02-24T11:32:00.904Z,45.8
2019-02-24T11:32:51.241Z,44.8
2019-02-24T11:33:41.031Z,43.8
2019-02-24T11:34:31.343Z,42.9
2019-02-24T11:35:21.396Z,42.2
2019-02-24T11:36:11.458Z,41.6